• Join FlightAware (Why Join?)
  • Login
  • US Flag 
01:01PM EST


 

Airport Tracker/Info


-or-


 

Live Flight TrackerFlight Track Log ✈ CWC496 ✈ 07-Jun-2013 ✈ SKBO / BOG - KMIA

Flight Track Log - Related Links

Times and Time Zones

All times are in EDT time to prevent confusion due to time zone crossing. See the CWC496 flight status page for this flight to view local times or setup timezone preferences in your user account.

Time Position Orientation Groundspeed Altitude Reporting Facility
EDT Latitude Longitude Course Direction KTS MPH feet Rate Location/Type
03:39PM 5.9095 -74.4717 345° North  Level Estimated
03:40PM 6.0319 -74.5046 345° North  Level Estimated
03:41PM 6.1543 -74.5376 345° North  Level Estimated
03:42PM 6.2767 -74.5706 345° North  Level Estimated
03:43PM 6.3991 -74.6037 345° North  Level Estimated
03:44PM 6.5215 -74.6367 345° North  Level Estimated
03:45PM 6.6439 -74.6698 345° North  Level Estimated
03:46PM 6.7663 -74.7029 345° North  Level Estimated
03:47PM 6.8887 -74.7360 345° North  Level Estimated
03:48PM 7.0111 -74.7691 345° North  Level Estimated
03:49PM 7.1335 -74.8022 345° North  Level Estimated
03:50PM 7.2559 -74.8354 345° North  Level Estimated
03:51PM 7.3783 -74.8685 345° North  Level Estimated
03:52PM 7.5007 -74.9017 345° North  Level Estimated
03:53PM 7.6231 -74.9349 345° North  Level Estimated
03:54PM 7.7455 -74.9681 345° North  Level Estimated
03:55PM 7.8678 -75.0014 345° North  Level Estimated
03:55PM 25.0678 -79.5314 345° North 441 507 18,800  Level Miami Center
03:56PM 7.9902 -75.0346 345° North  Level Estimated
03:56PM 25.1647 -79.5911 331° Northwest 418 481 15,300  Level Miami Center
03:57PM 8.1126 -75.0679 345° North  Level Estimated
03:57PM 25.2081 -79.6219 327° Northwest 393 452 13,900  Level Miami Center
03:57PM 25.2556 -79.6575 326° Northwest 391 450 12,000 -2,100 Descending Miami Center
03:58PM 8.2350 -75.1012 345° North  Level Estimated
03:58PM 25.3442 -79.7147 330° Northwest 383 441 10,600  Level Miami Center
03:59PM 8.3573 -75.1345 345° North  Level Estimated
03:59PM 25.4189 -79.7486 338° Northwest 294 338 9,900  Level Miami Center
04:00PM 8.4797 -75.1679 345° North  Level Estimated
04:00PM 25.4717 -79.8142 312° West 296 341 8,600  Level Miami Center
04:01PM 25.5486 -79.8436 341° North 290 334 7,100 -1,260 Descending Miami Center
04:02PM 25.6189 -79.8731 339° North 276 318 6,100 -1,200 Descending Miami Center
04:03PM 25.6853 -79.8978 341° North 265 305 4,800 -1,320 Descending Miami Center
04:04PM 25.7281 -79.9519 311° West 239 275 3,500 -900 Descending Miami Center
04:05PM 25.7600 -80.0197 298° West 216 249 3,000 -300 Descending Miami Center
04:06PM 25.7925 -80.0667 308° West 221 254 3,000 -420 Level Miami Center
04:07PM 25.8053 -80.1431 281° West 208 239 2,200 -780 Descending Miami Center
04:08PM 25.8022 -80.1939 266° West 168 193 1,400 -900 Descending Miami Center
04:09PM 25.8008 -80.2492 268° West 178 205 500 -900 Descending Miami Center
04:11PM 25.7833 -80.2833 260° West  Level FlightAware Approximate
04:18PM 25.7954 -80.2901 260° West  Level Estimated